sensor_id;sensor_type;location;lat;lon;timestamp;P1;durP1;ratioP1;P2;durP2;ratioP2
52838;SDS011;39219;53.678;9.856;2023-03-14T00:00:05;13.13;;;3.67;;
52838;SDS011;39219;53.678;9.856;2023-03-14T00:02:33;12.88;;;3.20;;
52838;SDS011;39219;53.678;9.856;2023-03-14T00:04:59;12.25;;;3.50;;
52838;SDS011;39219;53.678;9.856;2023-03-14T00:07:27;12.55;;;3.53;;
52838;SDS011;39219;53.678;9.856;2023-03-14T00:09:56;9.57;;;3.30;;
52838;SDS011;39219;53.678;9.856;2023-03-14T00:12:23;13.90;;;3.38;;
52838;SDS011;39219;53.678;9.856;2023-03-14T00:14:50;13.55;;;3.28;;
52838;SDS011;39219;53.678;9.856;2023-03-14T00:17:17;12.95;;;3.75;;
52838;SDS011;39219;53.678;9.856;2023-03-14T00:19:43;12.80;;;3.65;;
52838;SDS011;39219;53.678;9.856;2023-03-14T00:22:09;10.93;;;3.20;;
52838;SDS011;39219;53.678;9.856;2023-03-14T00:24:35;12.40;;;3.28;;
52838;SDS011;39219;53.678;9.856;2023-03-14T00:27:02;9.65;;;3.50;;
52838;SDS011;39219;53.678;9.856;2023-03-14T00:29:28;9.80;;;3.80;;
52838;SDS011;39219;53.678;9.856;2023-03-14T00:31:56;9.18;;;3.47;;
52838;SDS011;39219;53.678;9.856;2023-03-14T00:34:22;9.23;;;3.45;;
52838;SDS011;39219;53.678;9.856;2023-03-14T00:36:48;10.38;;;3.70;;
52838;SDS011;39219;53.678;9.856;2023-03-14T00:39:14;9.35;;;3.30;;
52838;SDS011;39219;53.678;9.856;2023-03-14T00:41:41;10.70;;;3.83;;
52838;SDS011;39219;53.678;9.856;2023-03-14T00:44:07;11.10;;;3.40;;
52838;SDS011;39219;53.678;9.856;2023-03-14T00:46:33;8.30;;;3.20;;
52838;SDS011;39219;53.678;9.856;2023-03-14T00:49:01;11.07;;;3.50;;
52838;SDS011;39219;53.678;9.856;2023-03-14T00:51:27;14.95;;;3.80;;
52838;SDS011;39219;53.678;9.856;2023-03-14T00:53:53;7.40;;;3.15;;
52838;SDS011;39219;53.678;9.856;2023-03-14T00:56:20;12.63;;;3.40;;
52838;SDS011;39219;53.678;9.856;2023-03-14T00:58:46;11.32;;;3.55;;
52838;SDS011;39219;53.678;9.856;2023-03-14T01:01:14;8.82;;;3.25;;
52838;SDS011;39219;53.678;9.856;2023-03-14T01:03:41;10.98;;;3.67;;
52838;SDS011;39219;53.678;9.856;2023-03-14T01:06:10;8.70;;;3.30;;
52838;SDS011;39219;53.678;9.856;2023-03-14T01:08:37;8.73;;;3.50;;
52838;SDS011;39219;53.678;9.856;2023-03-14T01:11:07;9.32;;;2.88;;
52838;SDS011;39219;53.678;9.856;2023-03-14T01:13:33;11.35;;;3.30;;
52838;SDS011;39219;53.678;9.856;2023-03-14T01:16:01;9.95;;;3.50;;
52838;SDS011;39219;53.678;9.856;2023-03-14T01:18:27;11.52;;;2.80;;
52838;SDS011;39219;53.678;9.856;2023-03-14T01:20:53;8.07;;;2.92;;
52838;SDS011;39219;53.678;9.856;2023-03-14T01:23:21;9.73;;;3.30;;
52838;SDS011;39219;53.678;9.856;2023-03-14T01:25:47;12.13;;;3.60;;
52838;SDS011;39219;53.678;9.856;2023-03-14T01:28:13;12.48;;;3.38;;
52838;SDS011;39219;53.678;9.856;2023-03-14T01:30:41;9.80;;;3.20;;
52838;SDS011;39219;53.678;9.856;2023-03-14T01:33:07;10.27;;;3.55;;
52838;SDS011;39219;53.678;9.856;2023-03-14T01:35:33;12.57;;;3.72;;
52838;SDS011;39219;53.678;9.856;2023-03-14T01:38:00;10.48;;;3.40;;
52838;SDS011;39219;53.678;9.856;2023-03-14T01:40:27;10.77;;;3.20;;
52838;SDS011;39219;53.678;9.856;2023-03-14T01:42:54;11.07;;;3.42;;
52838;SDS011;39219;53.678;9.856;2023-03-14T01:48:05;12.02;;;3.30;;
52838;SDS011;39219;53.678;9.856;2023-03-14T01:50:32;10.13;;;3.35;;
52838;SDS011;39219;53.678;9.856;2023-03-14T01:52:58;14.05;;;3.97;;
52838;SDS011;39219;53.678;9.856;2023-03-14T01:55:24;12.68;;;3.35;;
52838;SDS011;39219;53.678;9.856;2023-03-14T01:57:52;8.85;;;3.22;;
52838;SDS011;39219;53.678;9.856;2023-03-14T02:00:21;10.25;;;3.42;;
52838;SDS011;39219;53.678;9.856;2023-03-14T02:02:48;7.65;;;3.17;;
52838;SDS011;39219;53.678;9.856;2023-03-14T02:05:16;13.52;;;3.40;;
52838;SDS011;39219;53.678;9.856;2023-03-14T02:07:45;11.57;;;3.40;;
52838;SDS011;39219;53.678;9.856;2023-03-14T02:10:13;8.68;;;3.05;;
52838;SDS011;39219;53.678;9.856;2023-03-14T02:12:40;12.52;;;3.33;;
52838;SDS011;39219;53.678;9.856;2023-03-14T02:15:08;9.50;;;3.25;;
52838;SDS011;39219;53.678;9.856;2023-03-14T02:17:35;11.93;;;3.53;;
52838;SDS011;39219;53.678;9.856;2023-03-14T02:20:14;11.27;;;3.70;;
52838;SDS011;39219;53.678;9.856;2023-03-14T02:22:44;14.30;;;4.05;;
52838;SDS011;39219;53.678;9.856;2023-03-14T02:25:12;10.90;;;3.70;;
52838;SDS011;39219;53.678;9.856;2023-03-14T02:27:42;7.50;;;3.58;;
52838;SDS011;39219;53.678;9.856;2023-03-14T02:30:09;12.50;;;4.15;;
52838;SDS011;39219;53.678;9.856;2023-03-14T02:32:37;10.27;;;3.30;;
52838;SDS011;39219;53.678;9.856;2023-03-14T02:35:05;11.90;;;3.80;;
52838;SDS011;39219;53.678;9.856;2023-03-14T02:37:32;10.52;;;4.00;;
52838;SDS011;39219;53.678;9.856;2023-03-14T02:40:01;9.95;;;3.75;;
52838;SDS011;39219;53.678;9.856;2023-03-14T02:42:27;10.52;;;4.00;;
52838;SDS011;39219;53.678;9.856;2023-03-14T02:44:57;11.45;;;4.18;;
52838;SDS011;39219;53.678;9.856;2023-03-14T02:47:27;9.50;;;3.95;;
52838;SDS011;39219;53.678;9.856;2023-03-14T02:49:54;10.40;;;4.30;;
52838;SDS011;39219;53.678;9.856;2023-03-14T02:52:23;10.65;;;3.80;;
52838;SDS011;39219;53.678;9.856;2023-03-14T02:54:49;10.35;;;3.78;;
52838;SDS011;39219;53.678;9.856;2023-03-14T02:57:15;11.15;;;4.13;;
52838;SDS011;39219;53.678;9.856;2023-03-14T02:59:42;12.55;;;4.20;;
52838;SDS011;39219;53.678;9.856;2023-03-14T03:02:09;12.77;;;4.20;;
52838;SDS011;39219;53.678;9.856;2023-03-14T03:04:36;10.18;;;4.53;;
52838;SDS011;39219;53.678;9.856;2023-03-14T03:07:02;12.55;;;4.40;;
52838;SDS011;39219;53.678;9.856;2023-03-14T03:09:28;8.63;;;4.00;;
52838;SDS011;39219;53.678;9.856;2023-03-14T03:11:54;9.45;;;4.30;;
52838;SDS011;39219;53.678;9.856;2023-03-14T03:14:21;13.07;;;4.60;;
52838;SDS011;39219;53.678;9.856;2023-03-14T03:16:47;9.15;;;4.20;;
52838;SDS011;39219;53.678;9.856;2023-03-14T03:19:15;12.95;;;4.47;;
52838;SDS011;39219;53.678;9.856;2023-03-14T03:21:42;10.45;;;4.05;;
52838;SDS011;39219;53.678;9.856;2023-03-14T03:24:09;12.82;;;4.43;;
52838;SDS011;39219;53.678;9.856;2023-03-14T03:26:35;10.73;;;3.83;;
52838;SDS011;39219;53.678;9.856;2023-03-14T03:29:01;8.93;;;3.92;;
52838;SDS011;39219;53.678;9.856;2023-03-14T03:31:28;12.57;;;4.10;;
52838;SDS011;39219;53.678;9.856;2023-03-14T03:33:54;10.93;;;4.18;;
52838;SDS011;39219;53.678;9.856;2023-03-14T03:36:22;11.93;;;4.38;;
52838;SDS011;39219;53.678;9.856;2023-03-14T03:38:48;9.32;;;3.90;;
52838;SDS011;39219;53.678;9.856;2023-03-14T03:41:14;11.52;;;4.25;;
52838;SDS011;39219;53.678;9.856;2023-03-14T03:43:41;10.57;;;4.53;;
52838;SDS011;39219;53.678;9.856;2023-03-14T03:46:07;11.23;;;4.10;;
52838;SDS011;39219;53.678;9.856;2023-03-14T03:48:34;10.13;;;3.90;;
52838;SDS011;39219;53.678;9.856;2023-03-14T03:51:00;9.13;;;4.00;;
52838;SDS011;39219;53.678;9.856;2023-03-14T03:53:28;10.68;;;4.25;;
52838;SDS011;39219;53.678;9.856;2023-03-14T03:55:54;11.55;;;4.30;;
52838;SDS011;39219;53.678;9.856;2023-03-14T03:58:20;9.25;;;3.90;;
52838;SDS011;39219;53.678;9.856;2023-03-14T04:00:47;10.30;;;4.00;;
52838;SDS011;39219;53.678;9.856;2023-03-14T04:03:13;9.98;;;3.90;;
52838;SDS011;39219;53.678;9.856;2023-03-14T04:05:39;8.55;;;4.10;;
52838;SDS011;39219;53.678;9.856;2023-03-14T04:08:06;13.50;;;4.47;;
52838;SDS011;39219;53.678;9.856;2023-03-14T04:10:35;10.90;;;3.90;;
52838;SDS011;39219;53.678;9.856;2023-03-14T04:13:01;8.73;;;3.95;;
52838;SDS011;39219;53.678;9.856;2023-03-14T04:15:27;9.32;;;4.05;;
52838;SDS011;39219;53.678;9.856;2023-03-14T04:17:56;11.80;;;4.53;;
52838;SDS011;39219;53.678;9.856;2023-03-14T04:20:22;10.57;;;4.40;;
52838;SDS011;39219;53.678;9.856;2023-03-14T04:22:48;11.60;;;4.00;;
52838;SDS011;39219;53.678;9.856;2023-03-14T04:25:14;9.35;;;3.85;;
52838;SDS011;39219;53.678;9.856;2023-03-14T04:27:43;7.22;;;3.90;;
52838;SDS011;39219;53.678;9.856;2023-03-14T04:30:10;10.88;;;4.18;;
52838;SDS011;39219;53.678;9.856;2023-03-14T04:32:38;12.23;;;3.95;;
52838;SDS011;39219;53.678;9.856;2023-03-14T04:35:05;7.65;;;3.00;;
52838;SDS011;39219;53.678;9.856;2023-03-14T04:37:31;6.35;;;2.15;;
52838;SDS011;39219;53.678;9.856;2023-03-14T04:39:57;8.30;;;2.35;;
52838;SDS011;39219;53.678;9.856;2023-03-14T04:42:24;4.05;;;1.50;;
52838;SDS011;39219;53.678;9.856;2023-03-14T04:44:51;5.18;;;1.80;;
52838;SDS011;39219;53.678;9.856;2023-03-14T04:47:17;5.60;;;1.77;;
52838;SDS011;39219;53.678;9.856;2023-03-14T04:49:44;5.05;;;1.52;;
52838;SDS011;39219;53.678;9.856;2023-03-14T04:52:10;3.92;;;1.40;;
52838;SDS011;39219;53.678;9.856;2023-03-14T04:54:36;4.00;;;1.60;;
52838;SDS011;39219;53.678;9.856;2023-03-14T04:57:02;7.82;;;1.70;;
52838;SDS011;39219;53.678;9.856;2023-03-14T04:59:29;5.32;;;1.60;;
52838;SDS011;39219;53.678;9.856;2023-03-14T05:01:56;4.03;;;1.45;;
52838;SDS011;39219;53.678;9.856;2023-03-14T05:04:23;4.13;;;1.58;;
52838;SDS011;39219;53.678;9.856;2023-03-14T05:06:49;6.32;;;1.73;;
52838;SDS011;39219;53.678;9.856;2023-03-14T05:09:15;5.22;;;1.70;;
52838;SDS011;39219;53.678;9.856;2023-03-14T05:11:41;5.68;;;1.85;;
52838;SDS011;39219;53.678;9.856;2023-03-14T05:14:08;4.68;;;1.25;;
52838;SDS011;39219;53.678;9.856;2023-03-14T05:16:34;4.38;;;1.95;;
52838;SDS011;39219;53.678;9.856;2023-03-14T05:19:01;4.38;;;1.55;;
52838;SDS011;39219;53.678;9.856;2023-03-14T05:21:28;4.97;;;1.92;;
52838;SDS011;39219;53.678;9.856;2023-03-14T05:23:54;4.50;;;1.92;;
52838;SDS011;39219;53.678;9.856;2023-03-14T05:26:20;4.85;;;2.00;;
52838;SDS011;39219;53.678;9.856;2023-03-14T05:28:46;7.05;;;2.33;;
52838;SDS011;39219;53.678;9.856;2023-03-14T05:31:13;5.78;;;2.00;;
52838;SDS011;39219;53.678;9.856;2023-03-14T05:33:39;6.32;;;2.20;;
52838;SDS011;39219;53.678;9.856;2023-03-14T05:36:07;6.55;;;2.30;;
52838;SDS011;39219;53.678;9.856;2023-03-14T05:38:34;4.57;;;2.08;;
52838;SDS011;39219;53.678;9.856;2023-03-14T05:41:00;5.18;;;2.20;;
52838;SDS011;39219;53.678;9.856;2023-03-14T05:43:26;6.45;;;2.42;;
52838;SDS011;39219;53.678;9.856;2023-03-14T05:45:53;9.40;;;2.55;;
52838;SDS011;39219;53.678;9.856;2023-03-14T05:48:19;6.15;;;2.45;;
52838;SDS011;39219;53.678;9.856;2023-03-14T05:50:46;6.72;;;2.60;;
52838;SDS011;39219;53.678;9.856;2023-03-14T05:53:14;5.03;;;2.70;;
52838;SDS011;39219;53.678;9.856;2023-03-14T05:55:40;6.90;;;3.20;;
52838;SDS011;39219;53.678;9.856;2023-03-14T05:58:06;7.88;;;3.47;;
52838;SDS011;39219;53.678;9.856;2023-03-14T06:00:33;9.32;;;3.50;;
52838;SDS011;39219;53.678;9.856;2023-03-14T06:02:59;10.90;;;3.20;;
52838;SDS011;39219;53.678;9.856;2023-03-14T06:05:25;11.30;;;3.50;;
52838;SDS011;39219;53.678;9.856;2023-03-14T06:07:51;8.85;;;3.42;;
52838;SDS011;39219;53.678;9.856;2023-03-14T06:10:19;10.48;;;4.18;;
52838;SDS011;39219;53.678;9.856;2023-03-14T06:12:45;8.75;;;4.10;;
52838;SDS011;39219;53.678;9.856;2023-03-14T06:15:12;10.27;;;4.47;;
52838;SDS011;39219;53.678;9.856;2023-03-14T06:17:38;8.65;;;4.20;;
52838;SDS011;39219;53.678;9.856;2023-03-14T06:20:05;11.43;;;4.88;;
52838;SDS011;39219;53.678;9.856;2023-03-14T06:22:31;12.10;;;5.43;;
52838;SDS011;39219;53.678;9.856;2023-03-14T06:24:57;10.43;;;5.18;;
52838;SDS011;39219;53.678;9.856;2023-03-14T06:27:25;10.43;;;5.40;;
52838;SDS011;39219;53.678;9.856;2023-03-14T06:29:51;12.73;;;5.65;;
52838;SDS011;39219;53.678;9.856;2023-03-14T06:32:18;12.18;;;5.90;;
52838;SDS011;39219;53.678;9.856;2023-03-14T06:34:45;15.90;;;5.97;;
52838;SDS011;39219;53.678;9.856;2023-03-14T06:37:11;13.23;;;6.18;;
52838;SDS011;39219;53.678;9.856;2023-03-14T06:39:38;13.43;;;6.82;;
52838;SDS011;39219;53.678;9.856;2023-03-14T06:42:04;15.57;;;6.63;;
52838;SDS011;39219;53.678;9.856;2023-03-14T06:44:32;15.57;;;6.55;;
52838;SDS011;39219;53.678;9.856;2023-03-14T06:46:58;13.55;;;6.30;;
52838;SDS011;39219;53.678;9.856;2023-03-14T06:49:24;10.88;;;5.90;;
52838;SDS011;39219;53.678;9.856;2023-03-14T06:51:51;12.43;;;5.57;;
52838;SDS011;39219;53.678;9.856;2023-03-14T06:54:17;11.63;;;5.45;;
52838;SDS011;39219;53.678;9.856;2023-03-14T06:56:43;11.90;;;5.32;;
52838;SDS011;39219;53.678;9.856;2023-03-14T06:59:10;13.65;;;5.40;;
52838;SDS011;39219;53.678;9.856;2023-03-14T07:01:37;12.25;;;4.85;;
52838;SDS011;39219;53.678;9.856;2023-03-14T07:04:04;12.20;;;5.35;;
52838;SDS011;39219;53.678;9.856;2023-03-14T07:06:30;12.02;;;5.15;;
52838;SDS011;39219;53.678;9.856;2023-03-14T07:08:56;10.85;;;5.45;;
52838;SDS011;39219;53.678;9.856;2023-03-14T07:11:23;11.20;;;5.20;;
52838;SDS011;39219;53.678;9.856;2023-03-14T07:13:49;12.93;;;4.90;;
52838;SDS011;39219;53.678;9.856;2023-03-14T07:16:15;12.55;;;4.35;;
52838;SDS011;39219;53.678;9.856;2023-03-14T07:18:43;13.95;;;4.82;;
52838;SDS011;39219;53.678;9.856;2023-03-14T07:21:09;12.75;;;4.82;;
52838;SDS011;39219;53.678;9.856;2023-03-14T07:23:35;11.80;;;4.28;;
52838;SDS011;39219;53.678;9.856;2023-03-14T07:26:02;8.73;;;4.03;;
52838;SDS011;39219;53.678;9.856;2023-03-14T07:28:28;11.40;;;4.07;;
52838;SDS011;39219;53.678;9.856;2023-03-14T07:30:54;8.73;;;3.60;;
52838;SDS011;39219;53.678;9.856;2023-03-14T07:33:21;9.70;;;3.53;;
52838;SDS011;39219;53.678;9.856;2023-03-14T07:35:49;11.40;;;3.85;;
52838;SDS011;39219;53.678;9.856;2023-03-14T07:38:15;9.15;;;3.70;;
52838;SDS011;39219;53.678;9.856;2023-03-14T07:40:42;10.30;;;3.72;;
52838;SDS011;39219;53.678;9.856;2023-03-14T07:43:08;7.03;;;3.60;;
52838;SDS011;39219;53.678;9.856;2023-03-14T07:45:34;5.95;;;3.35;;
52838;SDS011;39219;53.678;9.856;2023-03-14T07:48:00;8.20;;;3.35;;
52838;SDS011;39219;53.678;9.856;2023-03-14T07:50:27;10.10;;;3.90;;
52838;SDS011;39219;53.678;9.856;2023-03-14T07:52:54;8.68;;;3.45;;
52838;SDS011;39219;53.678;9.856;2023-03-14T07:55:21;7.95;;;3.63;;
52838;SDS011;39219;53.678;9.856;2023-03-14T07:57:47;12.48;;;3.65;;
52838;SDS011;39219;53.678;9.856;2023-03-14T08:00:14;7.65;;;3.35;;
52838;SDS011;39219;53.678;9.856;2023-03-14T08:02:40;9.98;;;3.90;;
52838;SDS011;39219;53.678;9.856;2023-03-14T08:05:07;6.93;;;3.15;;
52838;SDS011;39219;53.678;9.856;2023-03-14T08:07:33;7.57;;;2.95;;
52838;SDS011;39219;53.678;9.856;2023-03-14T08:10:01;8.95;;;3.30;;
52838;SDS011;39219;53.678;9.856;2023-03-14T08:12:27;6.82;;;2.95;;
52838;SDS011;39219;53.678;9.856;2023-03-14T08:14:53;7.20;;;3.33;;
52838;SDS011;39219;53.678;9.856;2023-03-14T08:17:20;6.65;;;2.90;;
52838;SDS011;39219;53.678;9.856;2023-03-14T08:19:46;7.20;;;2.80;;
52838;SDS011;39219;53.678;9.856;2023-03-14T08:22:12;7.13;;;2.78;;
52838;SDS011;39219;53.678;9.856;2023-03-14T08:24:38;7.38;;;2.83;;
52838;SDS011;39219;53.678;9.856;2023-03-14T08:27:07;6.97;;;2.92;;
52838;SDS011;39219;53.678;9.856;2023-03-14T08:29:33;7.25;;;2.80;;
52838;SDS011;39219;53.678;9.856;2023-03-14T08:31:59;6.57;;;2.78;;
52838;SDS011;39219;53.678;9.856;2023-03-14T08:34:26;7.68;;;3.05;;
52838;SDS011;39219;53.678;9.856;2023-03-14T08:36:52;11.15;;;3.03;;
52838;SDS011;39219;53.678;9.856;2023-03-14T08:39:20;9.55;;;3.53;;
52838;SDS011;39219;53.678;9.856;2023-03-14T08:41:46;6.75;;;2.70;;
52838;SDS011;39219;53.678;9.856;2023-03-14T08:44:14;5.75;;;2.70;;
52838;SDS011;39219;53.678;9.856;2023-03-14T08:46:40;8.40;;;3.50;;
52838;SDS011;39219;53.678;9.856;2023-03-14T08:49:07;8.38;;;3.00;;
52838;SDS011;39219;53.678;9.856;2023-03-14T08:51:33;7.70;;;3.80;;
52838;SDS011;39219;53.678;9.856;2023-03-14T08:53:59;8.85;;;3.30;;
52838;SDS011;39219;53.678;9.856;2023-03-14T08:56:25;11.80;;;3.33;;
52838;SDS011;39219;53.678;9.856;2023-03-14T08:58:52;8.80;;;3.22;;
52838;SDS011;39219;53.678;9.856;2023-03-14T09:01:19;10.95;;;3.13;;
52838;SDS011;39219;53.678;9.856;2023-03-14T09:03:49;7.47;;;3.17;;
52838;SDS011;39219;53.678;9.856;2023-03-14T09:06:15;8.95;;;3.15;;
52838;SDS011;39219;53.678;9.856;2023-03-14T09:08:42;8.77;;;3.50;;
52838;SDS011;39219;53.678;9.856;2023-03-14T09:11:09;11.35;;;3.75;;
52838;SDS011;39219;53.678;9.856;2023-03-14T09:13:35;8.90;;;3.78;;
52838;SDS011;39219;53.678;9.856;2023-03-14T09:16:01;7.93;;;3.65;;
52838;SDS011;39219;53.678;9.856;2023-03-14T09:18:29;10.82;;;3.85;;
52838;SDS011;39219;53.678;9.856;2023-03-14T09:20:56;9.15;;;4.03;;
52838;SDS011;39219;53.678;9.856;2023-03-14T09:23:22;10.70;;;3.88;;
52838;SDS011;39219;53.678;9.856;2023-03-14T09:25:48;12.93;;;4.25;;
52838;SDS011;39219;53.678;9.856;2023-03-14T09:28:15;9.15;;;4.00;;
52838;SDS011;39219;53.678;9.856;2023-03-14T09:30:41;7.15;;;3.55;;
52838;SDS011;39219;53.678;9.856;2023-03-14T09:33:08;3.70;;;2.30;;
52838;SDS011;39219;53.678;9.856;2023-03-14T09:35:35;5.40;;;2.20;;
52838;SDS011;39219;53.678;9.856;2023-03-14T09:38:01;6.63;;;1.98;;
52838;SDS011;39219;53.678;9.856;2023-03-14T09:40:30;5.13;;;1.98;;
52838;SDS011;39219;53.678;9.856;2023-03-14T09:42:57;3.78;;;1.70;;
52838;SDS011;39219;53.678;9.856;2023-03-14T09:45:25;6.00;;;1.95;;
52838;SDS011;39219;53.678;9.856;2023-03-14T09:47:52;5.43;;;1.67;;
52838;SDS011;39219;53.678;9.856;2023-03-14T09:50:18;5.47;;;1.83;;
52838;SDS011;39219;53.678;9.856;2023-03-14T09:52:47;6.35;;;2.08;;
52838;SDS011;39219;53.678;9.856;2023-03-14T09:55:14;4.88;;;1.83;;
52838;SDS011;39219;53.678;9.856;2023-03-14T09:57:42;6.10;;;1.75;;
52838;SDS011;39219;53.678;9.856;2023-03-14T10:00:13;4.55;;;1.77;;
52838;SDS011;39219;53.678;9.856;2023-03-14T10:02:40;4.55;;;1.55;;
52838;SDS011;39219;53.678;9.856;2023-03-14T10:05:13;1.58;;;1.02;;
52838;SDS011;39219;53.678;9.856;2023-03-14T10:07:40;3.47;;;0.88;;
52838;SDS011;39219;53.678;9.856;2023-03-14T10:10:10;1.25;;;0.82;;
52838;SDS011;39219;53.678;9.856;2023-03-14T10:12:37;2.72;;;0.93;;
52838;SDS011;39219;53.678;9.856;2023-03-14T10:15:04;2.28;;;1.10;;
52838;SDS011;39219;53.678;9.856;2023-03-14T10:17:37;1.10;;;0.80;;
52838;SDS011;39219;53.678;9.856;2023-03-14T10:20:04;1.33;;;0.60;;
52838;SDS011;39219;53.678;9.856;2023-03-14T10:22:31;1.98;;;0.63;;
52838;SDS011;39219;53.678;9.856;2023-03-14T10:24:59;3.70;;;0.88;;
52838;SDS011;39219;53.678;9.856;2023-03-14T10:27:29;3.30;;;1.10;;
52838;SDS011;39219;53.678;9.856;2023-03-14T10:29:56;1.50;;;0.60;;
52838;SDS011;39219;53.678;9.856;2023-03-14T10:32:27;0.88;;;0.60;;
52838;SDS011;39219;53.678;9.856;2023-03-14T10:35:05;0.65;;;0.28;;
52838;SDS011;39219;53.678;9.856;2023-03-14T10:37:31;1.25;;;0.80;;
52838;SDS011;39219;53.678;9.856;2023-03-14T10:39:58;1.50;;;0.55;;
52838;SDS011;39219;53.678;9.856;2023-03-14T10:42:32;2.10;;;0.50;;
52838;SDS011;39219;53.678;9.856;2023-03-14T10:44:59;0.90;;;0.40;;
52838;SDS011;39219;53.678;9.856;2023-03-14T10:47:27;1.38;;;0.28;;
52838;SDS011;39219;53.678;9.856;2023-03-14T10:49:54;0.85;;;0.30;;
52838;SDS011;39219;53.678;9.856;2023-03-14T10:52:21;0.55;;;0.30;;
52838;SDS011;39219;53.678;9.856;2023-03-14T10:54:48;0.80;;;0.40;;
52838;SDS011;39219;53.678;9.856;2023-03-14T10:57:15;1.52;;;0.60;;
52838;SDS011;39219;53.678;9.856;2023-03-14T10:59:43;0.98;;;0.40;;
52838;SDS011;39219;53.678;9.856;2023-03-14T11:02:27;2.25;;;0.57;;
52838;SDS011;39219;53.678;9.856;2023-03-14T11:04:59;0.73;;;0.60;;
52838;SDS011;39219;53.678;9.856;2023-03-14T11:07:29;1.23;;;0.50;;
52838;SDS011;39219;53.678;9.856;2023-03-14T11:09:58;4.25;;;0.80;;
52838;SDS011;39219;53.678;9.856;2023-03-14T11:12:32;5.28;;;1.13;;
52838;SDS011;39219;53.678;9.856;2023-03-14T11:15:03;4.63;;;1.10;;
52838;SDS011;39219;53.678;9.856;2023-03-14T11:17:34;4.93;;;1.70;;
52838;SDS011;39219;53.678;9.856;2023-03-14T11:20:04;4.25;;;1.10;;
52838;SDS011;39219;53.678;9.856;2023-03-14T11:22:36;3.28;;;1.20;;
52838;SDS011;39219;53.678;9.856;2023-03-14T11:25:07;3.35;;;0.80;;
52838;SDS011;39219;53.678;9.856;2023-03-14T11:27:42;6.20;;;1.00;;
52838;SDS011;39219;53.678;9.856;2023-03-14T11:30:15;3.40;;;0.85;;
52838;SDS011;39219;53.678;9.856;2023-03-14T11:32:43;4.63;;;1.00;;
52838;SDS011;39219;53.678;9.856;2023-03-14T11:35:14;2.80;;;1.00;;
52838;SDS011;39219;53.678;9.856;2023-03-14T11:37:43;4.38;;;0.85;;
52838;SDS011;39219;53.678;9.856;2023-03-14T11:40:13;5.20;;;1.05;;
52838;SDS011;39219;53.678;9.856;2023-03-14T11:42:39;4.28;;;1.20;;
52838;SDS011;39219;53.678;9.856;2023-03-14T11:45:10;3.60;;;1.17;;
52838;SDS011;39219;53.678;9.856;2023-03-14T11:47:41;4.20;;;1.30;;
52838;SDS011;39219;53.678;9.856;2023-03-14T11:50:12;4.60;;;1.20;;
52838;SDS011;39219;53.678;9.856;2023-03-14T11:52:43;5.45;;;1.20;;
52838;SDS011;39219;53.678;9.856;2023-03-14T11:55:11;6.00;;;1.30;;
52838;SDS011;39219;53.678;9.856;2023-03-14T11:57:39;6.30;;;1.65;;
52838;SDS011;39219;53.678;9.856;2023-03-14T12:00:12;4.90;;;1.40;;
52838;SDS011;39219;53.678;9.856;2023-03-14T12:02:43;8.63;;;1.42;;
52838;SDS011;39219;53.678;9.856;2023-03-14T12:08:10;8.15;;;1.60;;
52838;SDS011;39219;53.678;9.856;2023-03-14T12:10:45;7.13;;;1.45;;
52838;SDS011;39219;53.678;9.856;2023-03-14T12:13:13;9.23;;;1.52;;
52838;SDS011;39219;53.678;9.856;2023-03-14T12:15:40;7.55;;;1.73;;
52838;SDS011;39219;53.678;9.856;2023-03-14T12:18:16;9.10;;;1.80;;
52838;SDS011;39219;53.678;9.856;2023-03-14T12:20:50;6.35;;;1.27;;
52838;SDS011;39219;53.678;9.856;2023-03-14T12:23:16;8.70;;;1.38;;
52838;SDS011;39219;53.678;9.856;2023-03-14T12:25:42;5.45;;;1.55;;
52838;SDS011;39219;53.678;9.856;2023-03-14T12:28:18;5.68;;;1.73;;
52838;SDS011;39219;53.678;9.856;2023-03-14T12:30:45;9.32;;;2.15;;
52838;SDS011;39219;53.678;9.856;2023-03-14T12:33:18;9.50;;;2.17;;
52838;SDS011;39219;53.678;9.856;2023-03-14T12:35:47;11.70;;;2.25;;
52838;SDS011;39219;53.678;9.856;2023-03-14T12:38:15;6.40;;;1.80;;
52838;SDS011;39219;53.678;9.856;2023-03-14T12:40:46;12.77;;;2.17;;
52838;SDS011;39219;53.678;9.856;2023-03-14T12:43:24;13.98;;;2.25;;
52838;SDS011;39219;53.678;9.856;2023-03-14T12:48:32;15.18;;;2.38;;
52838;SDS011;39219;53.678;9.856;2023-03-14T12:51:02;12.98;;;2.47;;
52838;SDS011;39219;53.678;9.856;2023-03-14T12:56:32;15.63;;;2.40;;
52838;SDS011;39219;53.678;9.856;2023-03-14T13:01:46;14.45;;;2.83;;
52838;SDS011;39219;53.678;9.856;2023-03-14T13:04:13;8.65;;;2.33;;
52838;SDS011;39219;53.678;9.856;2023-03-14T13:06:48;13.65;;;2.50;;
52838;SDS011;39219;53.678;9.856;2023-03-14T13:09:36;12.68;;;2.83;;
52838;SDS011;39219;53.678;9.856;2023-03-14T13:12:15;11.75;;;2.38;;
52838;SDS011;39219;53.678;9.856;2023-03-14T13:14:43;14.48;;;2.58;;
52838;SDS011;39219;53.678;9.856;2023-03-14T13:17:10;12.27;;;1.95;;
52838;SDS011;39219;53.678;9.856;2023-03-14T13:19:36;11.27;;;2.38;;
52838;SDS011;39219;53.678;9.856;2023-03-14T13:22:05;9.18;;;2.05;;
52838;SDS011;39219;53.678;9.856;2023-03-14T13:24:33;7.97;;;1.80;;
52838;SDS011;39219;53.678;9.856;2023-03-14T13:26:59;7.47;;;1.50;;
52838;SDS011;39219;53.678;9.856;2023-03-14T13:29:27;7.97;;;1.65;;
52838;SDS011;39219;53.678;9.856;2023-03-14T13:31:54;6.90;;;1.88;;
52838;SDS011;39219;53.678;9.856;2023-03-14T13:34:24;4.75;;;1.40;;
52838;SDS011;39219;53.678;9.856;2023-03-14T13:36:51;9.35;;;1.95;;
52838;SDS011;39219;53.678;9.856;2023-03-14T13:39:19;8.48;;;1.73;;
52838;SDS011;39219;53.678;9.856;2023-03-14T13:41:49;9.10;;;2.00;;
52838;SDS011;39219;53.678;9.856;2023-03-14T13:44:16;12.20;;;2.17;;
52838;SDS011;39219;53.678;9.856;2023-03-14T13:46:44;9.25;;;2.35;;
52838;SDS011;39219;53.678;9.856;2023-03-14T13:49:11;10.45;;;1.60;;
52838;SDS011;39219;53.678;9.856;2023-03-14T13:51:39;7.40;;;2.17;;
52838;SDS011;39219;53.678;9.856;2023-03-14T13:54:12;9.07;;;2.00;;
52838;SDS011;39219;53.678;9.856;2023-03-14T13:56:40;6.75;;;2.17;;
52838;SDS011;39219;53.678;9.856;2023-03-14T13:59:20;11.90;;;1.80;;
52838;SDS011;39219;53.678;9.856;2023-03-14T14:01:46;10.05;;;2.10;;
52838;SDS011;39219;53.678;9.856;2023-03-14T14:04:14;7.50;;;2.08;;
52838;SDS011;39219;53.678;9.856;2023-03-14T14:06:44;10.27;;;1.70;;
52838;SDS011;39219;53.678;9.856;2023-03-14T14:09:12;9.43;;;1.92;;
52838;SDS011;39219;53.678;9.856;2023-03-14T14:11:43;12.70;;;2.17;;
52838;SDS011;39219;53.678;9.856;2023-03-14T14:14:11;12.88;;;2.15;;
52838;SDS011;39219;53.678;9.856;2023-03-14T14:16:38;10.30;;;2.00;;
52838;SDS011;39219;53.678;9.856;2023-03-14T14:19:04;10.77;;;2.13;;
52838;SDS011;39219;53.678;9.856;2023-03-14T14:21:31;10.55;;;2.05;;
52838;SDS011;39219;53.678;9.856;2023-03-14T14:23:57;9.60;;;1.80;;
52838;SDS011;39219;53.678;9.856;2023-03-14T14:26:25;10.73;;;2.15;;
52838;SDS011;39219;53.678;9.856;2023-03-14T14:28:59;6.47;;;1.58;;
52838;SDS011;39219;53.678;9.856;2023-03-14T14:31:25;7.28;;;1.60;;
52838;SDS011;39219;53.678;9.856;2023-03-14T14:33:54;8.43;;;1.38;;
52838;SDS011;39219;53.678;9.856;2023-03-14T14:36:22;13.00;;;1.73;;
52838;SDS011;39219;53.678;9.856;2023-03-14T14:38:50;6.75;;;1.33;;
52838;SDS011;39219;53.678;9.856;2023-03-14T14:41:16;9.25;;;1.42;;
52838;SDS011;39219;53.678;9.856;2023-03-14T14:43:42;7.10;;;1.33;;
52838;SDS011;39219;53.678;9.856;2023-03-14T14:46:13;7.00;;;1.30;;
52838;SDS011;39219;53.678;9.856;2023-03-14T14:48:41;9.13;;;1.65;;
52838;SDS011;39219;53.678;9.856;2023-03-14T14:51:08;8.35;;;1.40;;
52838;SDS011;39219;53.678;9.856;2023-03-14T14:53:36;6.07;;;1.42;;
52838;SDS011;39219;53.678;9.856;2023-03-14T14:56:04;9.38;;;2.15;;
52838;SDS011;39219;53.678;9.856;2023-03-14T14:58:34;7.53;;;1.48;;